createdAt,value
2018-11-06T00:01:15.930Z,15.43
2018-11-06T00:03:25.166Z,14.43
2018-11-06T00:05:31.317Z,12.07
2018-11-06T00:07:37.208Z,12.37
2018-11-06T00:09:43.608Z,10.93
2018-11-06T00:11:49.978Z,10.13
2018-11-06T00:13:56.089Z,9.90
2018-11-06T00:16:01.767Z,8.43
2018-11-06T00:18:07.656Z,8.70
2018-11-06T00:20:14.639Z,8.17
2018-11-06T00:22:20.742Z,8.17
2018-11-06T00:24:26.701Z,7.17
2018-11-06T00:26:32.889Z,8.37
2018-11-06T00:28:38.481Z,7.73
2018-11-06T00:30:44.424Z,8.57
2018-11-06T00:32:50.045Z,8.10
2018-11-06T00:34:56.193Z,8.27
2018-11-06T00:37:02.078Z,7.50
2018-11-06T00:39:08.042Z,8.47
2018-11-06T00:41:14.826Z,7.97
2018-11-06T00:43:20.779Z,7.70
2018-11-06T00:45:27.654Z,7.37
2018-11-06T00:47:33.545Z,6.70
2018-11-06T00:49:39.091Z,6.70
2018-11-06T00:51:45.002Z,7.57
2018-11-06T00:53:51.778Z,8.07
2018-11-06T00:55:57.656Z,8.00
2018-11-06T00:58:05.359Z,8.23
2018-11-06T01:00:11.273Z,6.53
2018-11-06T01:02:16.730Z,6.37
2018-11-06T01:04:22.875Z,7.57
2018-11-06T01:06:32.247Z,7.77
2018-11-06T01:08:39.490Z,7.00
2018-11-06T01:10:45.125Z,6.90
2018-11-06T01:12:50.950Z,6.83
2018-11-06T01:14:56.530Z,7.47
2018-11-06T01:17:02.451Z,6.33
2018-11-06T01:19:08.602Z,7.07
2018-11-06T01:21:14.615Z,5.87
2018-11-06T01:23:20.381Z,7.23
2018-11-06T01:25:26.231Z,6.37
2018-11-06T01:27:31.039Z,6.50
2018-11-06T01:29:37.117Z,6.20
2018-11-06T01:31:42.620Z,6.80
2018-11-06T01:33:48.295Z,6.30
2018-11-06T01:35:54.182Z,5.70
2018-11-06T01:38:00.391Z,6.60
2018-11-06T01:40:06.349Z,5.43
2018-11-06T01:42:12.239Z,6.23
2018-11-06T01:44:19.264Z,6.67
2018-11-06T01:46:24.960Z,5.63
2018-11-06T01:48:30.302Z,6.23
2018-11-06T01:50:36.184Z,5.47
2018-11-06T01:52:42.069Z,6.27
2018-11-06T01:54:47.784Z,6.47
2018-11-06T01:56:53.572Z,4.97
2018-11-06T01:58:59.274Z,5.63
2018-11-06T02:01:05.165Z,5.57
2018-11-06T02:03:11.517Z,6.30
2018-11-06T02:05:18.263Z,5.40
2018-11-06T02:07:23.913Z,6.63
2018-11-06T02:09:29.890Z,6.83
2018-11-06T02:11:36.141Z,6.60
2018-11-06T02:13:42.282Z,6.00
2018-11-06T02:15:48.455Z,5.50
2018-11-06T02:17:54.190Z,6.17
2018-11-06T02:19:59.833Z,5.50
2018-11-06T02:22:06.264Z,5.37
2018-11-06T02:24:12.180Z,6.10
2018-11-06T02:26:17.592Z,5.30
2018-11-06T02:28:23.415Z,5.27
2018-11-06T02:30:29.380Z,4.63
2018-11-06T02:32:35.074Z,5.33
2018-11-06T02:34:40.673Z,5.67
2018-11-06T02:36:45.974Z,6.10
2018-11-06T02:38:51.108Z,5.20
2018-11-06T02:40:56.794Z,5.53
2018-11-06T02:43:02.354Z,5.20
2018-11-06T02:45:07.788Z,4.80
2018-11-06T02:47:14.254Z,4.60
2018-11-06T02:49:20.838Z,5.50
2018-11-06T02:51:26.720Z,5.20
2018-11-06T02:53:32.253Z,4.93
2018-11-06T02:55:37.923Z,5.00
2018-11-06T02:57:43.881Z,5.80
2018-11-06T02:59:49.650Z,5.93
2018-11-06T03:01:55.203Z,5.30
2018-11-06T03:04:00.979Z,5.53
2018-11-06T03:06:06.529Z,5.93
2018-11-06T03:08:12.406Z,4.97
2018-11-06T03:10:18.389Z,4.37
2018-11-06T03:12:24.194Z,4.37
2018-11-06T03:14:30.198Z,4.97
2018-11-06T03:16:36.287Z,5.50
2018-11-06T03:18:42.276Z,4.90
2018-11-06T03:20:48.221Z,4.50
2018-11-06T03:22:54.062Z,5.00
2018-11-06T03:24:59.702Z,5.03
2018-11-06T03:27:05.932Z,5.30
2018-11-06T03:29:11.968Z,5.10
2018-11-06T03:31:17.927Z,4.57
2018-11-06T03:33:23.884Z,4.57
2018-11-06T03:35:30.013Z,4.90
2018-11-06T03:37:35.631Z,4.33
2018-11-06T03:39:41.090Z,4.20
2018-11-06T03:41:47.240Z,4.60
2018-11-06T03:43:52.816Z,4.53
2018-11-06T03:45:58.563Z,4.60
2018-11-06T03:48:04.148Z,4.20
2018-11-06T03:50:09.574Z,4.77
2018-11-06T03:52:15.517Z,4.03
2018-11-06T03:54:21.566Z,4.33
2018-11-06T03:56:27.594Z,4.77
2018-11-06T03:58:32.999Z,4.77
2018-11-06T04:00:38.768Z,4.00
2018-11-06T04:02:44.479Z,3.70
2018-11-06T04:04:50.089Z,4.03
2018-11-06T04:06:55.704Z,4.00
2018-11-06T04:09:01.216Z,4.83
2018-11-06T04:11:06.893Z,4.50
2018-11-06T04:13:12.676Z,3.97
2018-11-06T04:15:18.174Z,4.00
2018-11-06T04:17:24.606Z,3.83
2018-11-06T04:19:30.453Z,4.30
2018-11-06T04:21:39.135Z,4.00
2018-11-06T04:23:44.301Z,4.47
2018-11-06T04:25:50.218Z,4.20
2018-11-06T04:27:55.181Z,4.07
2018-11-06T04:30:00.975Z,3.60
2018-11-06T04:32:06.380Z,3.80
2018-11-06T04:34:12.079Z,4.93
2018-11-06T04:36:18.071Z,4.60
2018-11-06T04:38:23.935Z,4.07
2018-11-06T04:40:29.951Z,4.03
2018-11-06T04:42:36.154Z,4.40
2018-11-06T04:44:41.766Z,3.47
2018-11-06T04:46:46.959Z,3.70
2018-11-06T04:48:52.907Z,4.03
2018-11-06T04:50:59.130Z,3.83
2018-11-06T04:53:05.102Z,3.90
2018-11-06T04:55:10.986Z,3.97
2018-11-06T04:57:16.644Z,3.63
2018-11-06T04:59:22.298Z,3.80
2018-11-06T05:01:28.940Z,3.63
2018-11-06T05:03:34.706Z,3.47
2018-11-06T05:05:40.761Z,3.93
2018-11-06T05:07:46.441Z,2.87
2018-11-06T05:09:52.791Z,3.40
2018-11-06T05:11:58.402Z,3.37
2018-11-06T05:14:04.239Z,3.70
2018-11-06T05:16:10.460Z,3.33
2018-11-06T05:18:16.260Z,3.33
2018-11-06T05:20:22.549Z,3.23
2018-11-06T05:22:28.380Z,3.90
2018-11-06T05:24:34.172Z,3.37
2018-11-06T05:26:39.552Z,3.47
2018-11-06T05:28:44.886Z,4.20
2018-11-06T05:30:50.798Z,4.10
2018-11-06T05:32:56.292Z,2.93
2018-11-06T05:35:02.231Z,3.63
2018-11-06T05:37:08.110Z,3.00
2018-11-06T05:39:14.463Z,4.07
2018-11-06T05:41:20.338Z,4.60
2018-11-06T05:43:26.444Z,3.47
2018-11-06T05:45:32.091Z,3.03
2018-11-06T05:47:38.412Z,4.20
2018-11-06T05:49:43.851Z,3.27
2018-11-06T05:51:49.660Z,3.83
2018-11-06T05:53:55.276Z,3.20
2018-11-06T05:56:01.218Z,3.20
2018-11-06T05:58:07.051Z,3.10
2018-11-06T06:00:12.499Z,3.67
2018-11-06T06:02:18.595Z,3.40
2018-11-06T06:04:24.477Z,3.43
2018-11-06T06:06:30.125Z,3.60
2018-11-06T06:08:35.936Z,3.03
2018-11-06T06:10:41.384Z,3.43
2018-11-06T06:12:47.012Z,3.40
2018-11-06T06:14:53.645Z,3.33
2018-11-06T06:16:59.514Z,3.73
2018-11-06T06:19:05.657Z,3.00
2018-11-06T06:21:11.623Z,2.90
2018-11-06T06:23:17.432Z,3.30
2018-11-06T06:25:23.089Z,2.53
2018-11-06T06:27:29.839Z,2.87
2018-11-06T06:29:35.547Z,3.20
2018-11-06T06:31:40.871Z,3.03
2018-11-06T06:33:46.473Z,2.90
2018-11-06T06:35:51.878Z,2.87
2018-11-06T06:37:57.410Z,3.07
2018-11-06T06:40:03.333Z,3.53
2018-11-06T06:42:08.999Z,3.60
2018-11-06T06:44:15.361Z,3.00
2018-11-06T06:46:21.488Z,2.90
2018-11-06T06:48:27.128Z,4.07
2018-11-06T06:50:32.661Z,2.80
2018-11-06T06:52:38.812Z,2.93
2018-11-06T06:54:44.293Z,2.73
2018-11-06T06:56:50.757Z,2.80
2018-11-06T06:58:56.530Z,2.57
2018-11-06T07:01:02.120Z,2.70
2018-11-06T07:03:07.428Z,2.80
2018-11-06T07:05:19.085Z,2.87
2018-11-06T07:07:24.367Z,2.53
2018-11-06T07:09:30.296Z,2.80
2018-11-06T07:11:36.092Z,2.60
2018-11-06T07:13:41.575Z,2.87
2018-11-06T07:15:47.424Z,2.60
2018-11-06T07:17:53.825Z,3.20
2018-11-06T07:19:59.331Z,3.70
2018-11-06T07:22:05.344Z,2.83
2018-11-06T07:24:10.967Z,2.13
2018-11-06T07:26:16.874Z,2.50
2018-11-06T07:28:22.340Z,2.57
2018-11-06T07:30:28.072Z,2.97
2018-11-06T07:32:33.688Z,2.50
2018-11-06T07:34:39.828Z,3.50
2018-11-06T07:36:45.471Z,2.50
2018-11-06T07:38:52.364Z,3.00
2018-11-06T07:40:58.067Z,2.40
2018-11-06T07:43:03.880Z,2.63
2018-11-06T07:45:09.818Z,3.00
2018-11-06T07:47:15.604Z,2.77
2018-11-06T07:49:20.687Z,2.60
2018-11-06T07:51:26.669Z,2.90
2018-11-06T07:53:32.445Z,2.50
2018-11-06T07:55:38.093Z,2.10
2018-11-06T07:57:43.462Z,2.83
2018-11-06T07:59:49.124Z,3.17
2018-11-06T08:01:54.859Z,2.70
2018-11-06T08:04:00.198Z,2.93
2018-11-06T08:06:05.812Z,2.60
2018-11-06T08:08:11.150Z,2.00
2018-11-06T08:10:16.828Z,2.57
2018-11-06T08:12:22.542Z,2.80
2018-11-06T08:14:27.993Z,3.07
2018-11-06T08:16:33.564Z,2.37
2018-11-06T08:18:39.097Z,2.03
2018-11-06T08:20:44.755Z,2.83
2018-11-06T08:22:50.369Z,2.20
2018-11-06T08:24:56.424Z,2.83
2018-11-06T08:27:01.964Z,2.40
2018-11-06T08:29:07.557Z,2.70
2018-11-06T08:31:13.310Z,2.67
2018-11-06T08:33:19.169Z,2.37
2018-11-06T08:35:24.914Z,2.50
2018-11-06T08:37:30.539Z,2.73
2018-11-06T08:39:36.201Z,2.30
2018-11-06T08:41:41.804Z,2.67
2018-11-06T08:43:47.519Z,2.97
2018-11-06T08:45:53.070Z,2.80
2018-11-06T08:47:59.159Z,2.70
2018-11-06T08:50:04.491Z,2.70
2018-11-06T08:52:11.273Z,2.87
2018-11-06T08:54:16.571Z,2.33
2018-11-06T08:56:22.260Z,2.60
2018-11-06T08:58:27.707Z,2.40
2018-11-06T09:00:33.273Z,2.43
2018-11-06T09:02:38.926Z,2.10
2018-11-06T09:04:44.539Z,2.30
2018-11-06T09:06:50.582Z,2.10
2018-11-06T09:08:55.972Z,2.40
2018-11-06T09:11:01.135Z,2.00
2018-11-06T09:13:06.281Z,2.10
2018-11-06T09:15:11.742Z,2.80
2018-11-06T09:17:16.797Z,2.57
2018-11-06T09:19:22.083Z,2.30
2018-11-06T09:21:27.299Z,2.03
2018-11-06T09:23:33.585Z,2.77
2018-11-06T09:25:39.122Z,5.77
2018-11-06T09:27:45.084Z,3.40
2018-11-06T09:29:50.538Z,3.07
2018-11-06T09:31:56.884Z,6.30
2018-11-06T09:34:03.042Z,4.73
2018-11-06T09:36:08.272Z,4.70
2018-11-06T09:38:14.232Z,3.47
2018-11-06T09:40:21.551Z,3.10
2018-11-06T09:42:27.434Z,2.70
2018-11-06T09:46:39.620Z,3.70
2018-11-06T09:48:45.751Z,3.43
2018-11-06T09:50:51.424Z,3.20
2018-11-06T09:52:57.143Z,3.80
2018-11-06T09:55:02.746Z,3.37
2018-11-06T09:57:08.177Z,3.10
2018-11-06T09:59:14.620Z,3.10
2018-11-06T10:01:19.929Z,2.87
2018-11-06T10:03:25.557Z,2.90
2018-11-06T10:05:30.989Z,2.30
2018-11-06T10:07:36.278Z,2.90
2018-11-06T10:09:41.711Z,2.90
2018-11-06T10:11:47.650Z,2.57
2018-11-06T10:13:52.660Z,2.90
2018-11-06T10:15:59.750Z,2.80
2018-11-06T10:18:05.273Z,2.20
2018-11-06T10:20:10.759Z,2.33
2018-11-06T10:22:16.304Z,2.27
2018-11-06T10:24:22.061Z,2.23
2018-11-06T10:26:28.361Z,2.67
2018-11-06T10:28:34.043Z,2.50
2018-11-06T10:30:39.673Z,3.30
2018-11-06T10:32:45.853Z,2.53
2018-11-06T10:34:51.922Z,3.20
2018-11-06T10:36:58.863Z,2.40
2018-11-06T10:39:05.354Z,2.67
2018-11-06T10:41:11.536Z,3.40
2018-11-06T10:43:18.521Z,2.50
2018-11-06T10:45:24.497Z,2.50
2018-11-06T10:47:30.415Z,3.17
2018-11-06T10:49:35.971Z,2.87
2018-11-06T10:51:41.843Z,2.83
2018-11-06T10:53:47.744Z,2.90
2018-11-06T10:55:53.386Z,2.70
2018-11-06T10:57:59.095Z,2.97
2018-11-06T11:00:04.845Z,2.80
2018-11-06T11:02:14.756Z,2.50
2018-11-06T11:04:21.885Z,2.70
2018-11-06T11:06:27.813Z,2.70
2018-11-06T11:08:33.710Z,2.70
2018-11-06T11:10:39.343Z,3.00
2018-11-06T11:12:45.391Z,2.87
2018-11-06T11:14:51.446Z,2.20
2018-11-06T11:16:57.501Z,2.33
2018-11-06T11:19:03.181Z,2.40
2018-11-06T11:21:08.595Z,2.37
2018-11-06T11:23:14.340Z,2.73
2018-11-06T11:25:20.324Z,2.77
2018-11-06T11:27:25.726Z,2.97
2018-11-06T11:29:30.973Z,3.10
2018-11-06T11:31:36.553Z,2.17
2018-11-06T11:33:42.037Z,2.50
2018-11-06T11:35:47.894Z,2.90
2018-11-06T11:37:54.956Z,2.63
2018-11-06T11:40:00.943Z,2.73
2018-11-06T11:42:06.520Z,2.40
2018-11-06T11:44:12.685Z,2.50
2018-11-06T11:46:18.492Z,2.30
2018-11-06T11:48:24.248Z,2.30
2018-11-06T11:50:29.593Z,2.57
2018-11-06T11:52:35.395Z,1.83
2018-11-06T11:54:41.163Z,2.50
2018-11-06T11:56:46.995Z,2.13
2018-11-06T11:58:52.590Z,2.73
2018-11-06T12:00:58.529Z,2.27
2018-11-06T12:03:04.427Z,2.30
2018-11-06T12:05:10.168Z,2.80
2018-11-06T12:07:15.696Z,2.10
2018-11-06T12:09:21.336Z,2.77
2018-11-06T12:11:27.296Z,2.40
2018-11-06T12:13:33.412Z,2.10
2018-11-06T12:15:39.398Z,2.90
2018-11-06T12:17:46.314Z,2.37
2018-11-06T12:19:51.979Z,2.63
2018-11-06T12:21:58.637Z,2.80
2018-11-06T12:24:05.135Z,2.40
2018-11-06T12:26:11.388Z,2.30
2018-11-06T12:28:17.623Z,3.07
2018-11-06T12:30:23.685Z,2.80
2018-11-06T12:32:29.678Z,3.30
2018-11-06T12:34:35.924Z,2.47
2018-11-06T12:36:42.875Z,3.30
2018-11-06T12:38:48.645Z,3.27
2018-11-06T12:40:54.377Z,3.20
2018-11-06T12:43:00.069Z,2.40
2018-11-06T12:45:05.708Z,2.83
2018-11-06T12:47:10.852Z,3.23
2018-11-06T12:49:16.995Z,3.80
2018-11-06T12:51:22.995Z,23.10
2018-11-06T12:53:28.655Z,292.47
2018-11-06T12:55:34.286Z,806.33
2018-11-06T12:57:39.985Z,699.93
2018-11-06T12:59:45.612Z,471.27
2018-11-06T13:01:51.063Z,281.90
2018-11-06T13:03:56.326Z,85.53
2018-11-06T13:06:01.802Z,28.90
2018-11-06T13:08:07.218Z,24.97
2018-11-06T13:10:13.578Z,19.30
2018-11-06T13:12:19.585Z,4.93
2018-11-06T13:14:30.258Z,9.37
2018-11-06T13:16:36.809Z,9.23
2018-11-06T13:18:43.200Z,4.80
2018-11-06T13:20:50.274Z,5.10
2018-11-06T13:22:55.932Z,6.63
2018-11-06T13:25:01.407Z,8.40
2018-11-06T13:27:07.368Z,6.83
2018-11-06T13:29:12.974Z,8.43
2018-11-06T13:31:18.763Z,9.17
2018-11-06T13:33:24.141Z,12.00
2018-11-06T13:35:29.799Z,10.60
2018-11-06T13:37:35.245Z,10.40
2018-11-06T13:39:41.373Z,11.00
2018-11-06T13:41:47.460Z,12.20
2018-11-06T13:43:53.204Z,11.60
2018-11-06T13:45:59.035Z,11.63
2018-11-06T13:48:05.098Z,12.00
2018-11-06T13:50:11.363Z,12.03
2018-11-06T13:52:17.040Z,12.23
2018-11-06T13:54:22.350Z,11.27
2018-11-06T13:56:28.207Z,12.53
2018-11-06T13:58:33.687Z,12.60
2018-11-06T14:00:39.354Z,14.60
2018-11-06T14:02:45.238Z,12.10
2018-11-06T14:04:51.737Z,12.00
2018-11-06T14:06:57.310Z,12.80
2018-11-06T14:09:02.585Z,13.20
2018-11-06T14:11:08.148Z,13.10
2018-11-06T14:13:14.090Z,11.23
2018-11-06T14:15:20.333Z,12.47
2018-11-06T14:17:25.971Z,13.10
2018-11-06T14:19:32.080Z,12.37
2018-11-06T14:21:38.052Z,11.47
2018-11-06T14:23:44.108Z,12.73
2018-11-06T14:25:50.511Z,13.03
2018-11-06T14:27:55.974Z,13.60
2018-11-06T14:30:02.413Z,14.07
2018-11-06T14:32:08.076Z,12.57
2018-11-06T14:34:13.694Z,12.37
2018-11-06T14:36:18.899Z,12.30
2018-11-06T14:38:24.535Z,13.00
2018-11-06T14:40:30.568Z,10.50
2018-11-06T14:42:36.406Z,11.30
2018-11-06T14:44:42.080Z,12.80
2018-11-06T14:46:47.671Z,10.53
2018-11-06T14:48:53.432Z,11.50
2018-11-06T14:50:59.129Z,10.40
2018-11-06T14:53:04.873Z,8.60
2018-11-06T14:55:11.081Z,10.70
2018-11-06T14:57:17.173Z,10.43
2018-11-06T14:59:22.875Z,11.20
2018-11-06T15:01:28.533Z,11.30
2018-11-06T15:03:34.190Z,10.97
2018-11-06T15:05:41.434Z,11.20
2018-11-06T15:07:47.327Z,11.40
2018-11-06T15:09:53.076Z,10.77
2018-11-06T15:11:59.108Z,10.53
2018-11-06T15:14:05.230Z,10.40
2018-11-06T15:16:10.659Z,11.47
2018-11-06T15:18:16.320Z,10.03
2018-11-06T15:20:23.314Z,10.07
2018-11-06T15:22:28.876Z,9.50
2018-11-06T15:24:34.313Z,9.80
2018-11-06T15:26:40.079Z,9.20
2018-11-06T15:28:45.352Z,10.70
2018-11-06T15:30:51.253Z,9.47
2018-11-06T15:32:56.687Z,10.77
2018-11-06T15:35:02.846Z,9.17
2018-11-06T15:37:08.440Z,10.40
2018-11-06T15:39:15.099Z,8.40
2018-11-06T15:41:21.554Z,8.73
2018-11-06T15:43:27.489Z,9.00
2018-11-06T15:45:32.942Z,7.30
2018-11-06T15:47:39.184Z,8.30
2018-11-06T15:49:44.482Z,8.23
2018-11-06T15:51:50.294Z,7.63
2018-11-06T15:53:56.432Z,7.70
2018-11-06T15:56:02.367Z,9.10
2018-11-06T15:58:07.917Z,8.27
2018-11-06T16:00:13.942Z,7.80
2018-11-06T16:02:19.462Z,8.10
2018-11-06T16:04:24.688Z,8.70
2018-11-06T16:06:30.095Z,8.40
2018-11-06T16:08:35.347Z,8.07
2018-11-06T16:10:41.142Z,7.50
2018-11-06T16:12:47.225Z,8.40
2018-11-06T16:14:52.635Z,6.63
2018-11-06T16:16:58.124Z,8.20
2018-11-06T16:19:03.609Z,7.43
2018-11-06T16:21:08.936Z,7.80
2018-11-06T16:23:14.474Z,8.33
2018-11-06T16:25:20.655Z,7.40
2018-11-06T16:27:26.335Z,8.57
2018-11-06T16:29:31.922Z,8.10
2018-11-06T16:31:37.877Z,7.93
2018-11-06T16:33:43.670Z,7.73
2018-11-06T16:35:49.409Z,7.47
2018-11-06T16:37:55.506Z,7.53
2018-11-06T16:40:02.845Z,7.27
2018-11-06T16:42:08.591Z,6.60
2018-11-06T16:44:14.460Z,6.57
2018-11-06T16:46:19.930Z,6.70
2018-11-06T16:48:25.825Z,7.47
2018-11-06T16:50:31.186Z,7.37
2018-11-06T16:52:37.372Z,6.67
2018-11-06T16:54:43.226Z,7.50
2018-11-06T16:56:48.556Z,6.53
2018-11-06T16:58:54.446Z,7.00
2018-11-06T17:01:00.413Z,6.50
2018-11-06T17:03:05.759Z,7.33
2018-11-06T17:05:12.233Z,6.30
2018-11-06T17:07:18.489Z,6.00
2018-11-06T17:09:27.748Z,6.00
2018-11-06T17:11:34.091Z,5.73
2018-11-06T17:13:40.220Z,6.10
2018-11-06T17:15:45.972Z,6.47
2018-11-06T17:17:51.873Z,5.70
2018-11-06T17:19:57.602Z,5.03
2018-11-06T17:22:02.769Z,5.40
2018-11-06T17:24:08.494Z,5.70
2018-11-06T17:26:14.568Z,5.50
2018-11-06T17:28:20.011Z,5.47
2018-11-06T17:30:25.896Z,4.50
2018-11-06T17:32:31.496Z,4.60
2018-11-06T17:34:37.356Z,5.00
2018-11-06T17:36:42.578Z,4.53
2018-11-06T17:38:48.568Z,4.27
2018-11-06T17:40:54.305Z,4.90
2018-11-06T17:43:00.719Z,4.50
2018-11-06T17:45:06.590Z,4.43
2018-11-06T17:47:12.279Z,4.30
2018-11-06T17:49:17.836Z,4.50
2018-11-06T17:51:23.643Z,4.67
2018-11-06T17:53:29.742Z,4.47
2018-11-06T17:55:35.569Z,4.80
2018-11-06T17:57:41.508Z,4.20
2018-11-06T17:59:47.336Z,4.97
2018-11-06T18:01:53.022Z,4.47
2018-11-06T18:03:59.937Z,4.90
2018-11-06T18:06:05.853Z,4.17
2018-11-06T18:08:11.316Z,4.20
2018-11-06T18:10:21.165Z,4.33
2018-11-06T18:12:27.739Z,3.40
2018-11-06T18:14:33.270Z,3.53
2018-11-06T18:16:39.038Z,3.77
2018-11-06T18:18:45.215Z,3.83
2018-11-06T18:20:50.349Z,3.87
2018-11-06T18:22:56.127Z,4.07
2018-11-06T18:25:02.038Z,3.47
2018-11-06T18:27:07.510Z,4.10
2018-11-06T18:29:12.736Z,3.70
2018-11-06T18:31:18.517Z,3.80
2018-11-06T18:33:24.214Z,4.13
2018-11-06T18:35:30.425Z,3.87
2018-11-06T18:37:36.197Z,3.13
2018-11-06T18:39:41.768Z,3.87
2018-11-06T18:41:47.673Z,3.63
2018-11-06T18:43:53.908Z,3.60
2018-11-06T18:45:59.466Z,3.73
2018-11-06T18:48:05.664Z,3.83
2018-11-06T18:50:11.317Z,3.77
2018-11-06T18:52:17.585Z,4.20
2018-11-06T18:54:23.409Z,3.30
2018-11-06T18:56:29.030Z,3.83
2018-11-06T18:58:35.193Z,3.10
2018-11-06T19:00:40.939Z,3.03
2018-11-06T19:02:47.303Z,3.40
2018-11-06T19:04:53.111Z,3.27
2018-11-06T19:06:58.815Z,3.30
2018-11-06T19:09:04.578Z,2.90
2018-11-06T19:11:10.482Z,3.93
2018-11-06T19:13:16.400Z,3.30
2018-11-06T19:15:23.483Z,3.57
2018-11-06T19:17:29.234Z,2.70
2018-11-06T19:19:34.787Z,3.87
2018-11-06T19:21:40.247Z,3.20
2018-11-06T19:23:46.355Z,2.73
2018-11-06T19:25:57.454Z,3.23
2018-11-06T19:28:02.844Z,3.00
2018-11-06T19:30:08.571Z,2.97
2018-11-06T19:32:14.465Z,3.07
2018-11-06T19:34:20.411Z,2.70
2018-11-06T19:36:26.173Z,3.10
2018-11-06T19:38:31.771Z,3.07
2018-11-06T19:40:37.403Z,2.83
2018-11-06T19:42:43.858Z,3.17
2018-11-06T19:44:49.803Z,2.93
2018-11-06T19:46:55.218Z,3.13
2018-11-06T19:49:01.528Z,3.47
2018-11-06T19:51:07.153Z,3.20
2018-11-06T19:53:13.080Z,2.90
2018-11-06T19:55:19.838Z,3.00
2018-11-06T19:57:26.016Z,3.20
2018-11-06T19:59:31.882Z,3.30
2018-11-06T20:01:37.957Z,2.90
2018-11-06T20:03:44.156Z,2.80
2018-11-06T20:05:49.810Z,2.60
2018-11-06T20:07:55.933Z,3.30
2018-11-06T20:10:01.002Z,3.30
2018-11-06T20:12:06.679Z,2.97
2018-11-06T20:14:12.219Z,2.90
2018-11-06T20:16:17.578Z,2.80
2018-11-06T20:18:23.612Z,2.47
2018-11-06T20:20:29.591Z,2.60
2018-11-06T20:22:35.402Z,2.50
2018-11-06T20:24:41.037Z,3.47
2018-11-06T20:26:46.867Z,2.87
2018-11-06T20:28:52.474Z,2.67
2018-11-06T20:30:57.717Z,2.20
2018-11-06T20:33:03.871Z,2.47
2018-11-06T20:35:09.602Z,2.60
2018-11-06T20:37:15.322Z,3.07
2018-11-06T20:39:20.849Z,2.40
2018-11-06T20:41:26.478Z,2.30
2018-11-06T20:43:32.004Z,2.60
2018-11-06T20:45:37.643Z,2.80
2018-11-06T20:47:43.538Z,2.60
2018-11-06T20:49:49.300Z,2.53
2018-11-06T20:51:55.450Z,2.60
2018-11-06T20:54:01.462Z,2.20
2018-11-06T20:56:06.966Z,2.50
2018-11-06T20:58:13.195Z,2.00
2018-11-06T21:00:22.767Z,2.20
2018-11-06T21:02:28.721Z,2.70
2018-11-06T21:04:34.669Z,2.27
2018-11-06T21:06:40.248Z,2.23
2018-11-06T21:08:45.763Z,1.83
2018-11-06T21:10:51.493Z,2.13
2018-11-06T21:12:57.659Z,2.67
2018-11-06T21:15:03.565Z,2.00
2018-11-06T21:17:09.469Z,2.10
2018-11-06T21:19:14.884Z,2.33
2018-11-06T21:21:20.894Z,2.30
2018-11-06T21:23:26.610Z,2.33
2018-11-06T21:25:32.563Z,2.13
2018-11-06T21:27:38.443Z,2.50
2018-11-06T21:29:44.201Z,2.27
2018-11-06T21:31:49.831Z,2.40
2018-11-06T21:33:56.032Z,2.10
2018-11-06T21:36:01.981Z,2.07
2018-11-06T21:38:07.780Z,2.00
2018-11-06T21:40:14.170Z,2.50
2018-11-06T21:42:20.081Z,2.30
2018-11-06T21:44:26.452Z,2.50
2018-11-06T21:46:32.072Z,2.40
2018-11-06T21:48:38.192Z,2.40
2018-11-06T21:50:43.855Z,2.50
2018-11-06T21:52:49.458Z,2.43
2018-11-06T21:54:55.335Z,2.27
2018-11-06T21:57:01.436Z,2.07
2018-11-06T21:59:07.041Z,2.20
2018-11-06T22:01:12.539Z,2.40
2018-11-06T22:03:17.861Z,2.60
2018-11-06T22:05:24.382Z,2.40
2018-11-06T22:07:40.320Z,2.27
2018-11-06T22:09:46.698Z,2.93
2018-11-06T22:11:52.826Z,2.13
2018-11-06T22:13:58.518Z,2.40
2018-11-06T22:16:04.506Z,2.43
2018-11-06T22:18:10.173Z,2.50
2018-11-06T22:20:16.765Z,2.30
2018-11-06T22:22:22.410Z,2.17
2018-11-06T22:24:28.537Z,2.33
2018-11-06T22:26:34.065Z,2.83
2018-11-06T22:28:39.378Z,2.60
2018-11-06T22:30:46.024Z,2.47
2018-11-06T22:32:51.948Z,1.90
2018-11-06T22:34:57.735Z,2.60
2018-11-06T22:37:03.710Z,2.00
2018-11-06T22:39:09.224Z,2.30
2018-11-06T22:41:15.289Z,2.00
2018-11-06T22:43:21.535Z,2.20
2018-11-06T22:45:27.152Z,2.80
2018-11-06T22:47:32.940Z,2.17
2018-11-06T22:49:38.669Z,1.93
2018-11-06T22:51:44.700Z,2.07
2018-11-06T22:53:50.688Z,2.37
2018-11-06T22:55:56.396Z,2.57
2018-11-06T22:58:02.566Z,2.40
2018-11-06T23:00:08.313Z,2.00
2018-11-06T23:02:14.311Z,2.00
2018-11-06T23:04:20.022Z,2.67
2018-11-06T23:06:25.856Z,2.30
2018-11-06T23:08:32.315Z,1.93
2018-11-06T23:10:38.595Z,2.13
2018-11-06T23:12:44.840Z,2.20
2018-11-06T23:14:50.754Z,2.00
2018-11-06T23:16:56.475Z,2.07
2018-11-06T23:19:02.258Z,1.87
2018-11-06T23:21:07.450Z,1.80
2018-11-06T23:23:13.099Z,2.13
2018-11-06T23:25:18.622Z,1.97
2018-11-06T23:27:24.709Z,2.17
2018-11-06T23:29:29.916Z,1.70
2018-11-06T23:31:36.140Z,2.30
2018-11-06T23:33:41.996Z,2.30
2018-11-06T23:35:47.681Z,2.10
2018-11-06T23:37:53.062Z,2.40
2018-11-06T23:39:58.868Z,2.47
2018-11-06T23:42:04.593Z,2.20
2018-11-06T23:44:10.349Z,2.00
2018-11-06T23:46:16.365Z,2.13
2018-11-06T23:48:22.350Z,2.07
2018-11-06T23:50:27.982Z,2.00
2018-11-06T23:52:33.605Z,2.00
2018-11-06T23:54:39.949Z,2.13
2018-11-06T23:56:45.660Z,1.77
2018-11-06T23:58:51.108Z,2.20
